Time;durP1;ratioP1;P1;durP2;ratioP2;P2;SDS_P1;SDS_P2;PMS_P1;PMS_P2;Temp;Humidity;BMP_temperature;BMP_pressure;BME280_temperature;BME280_humidity;BME280_pressure;Samples;Min_cycle;Max_cycle;Signal;HPM_P1;HPM_P2
2021/08/30 00:00:45;;;;;;;;;;;17.20;99.90;;;;;;5011098;28;19913;-70
2021/08/30 00:03:13;;;;;;;;;;;17.10;99.90;;;;;;5010315;28;19995;-71
2021/08/30 00:05:39;;;;;;;;;;;17.00;99.90;;;;;;5004221;28;20273;-69
2021/08/30 00:08:04;;;;;;;;;;;17.00;99.90;;;;;;5008561;28;20406;-70
2021/08/30 00:10:30;;;;;;;;;;;17.00;99.90;;;;;;5009746;28;19916;-71
2021/08/30 00:12:56;;;;;;;;;;;17.00;99.90;;;;;;5008343;28;19909;-71
2021/08/30 00:15:21;;;;;;;;;;;17.00;99.90;;;;;;5009205;28;20024;-71
2021/08/30 00:17:47;;;;;;;;;;;16.90;99.90;;;;;;5010768;28;19916;-71
2021/08/30 00:20:15;;;;;;;;;;;16.90;99.90;;;;;;5011060;28;19933;-69
2021/08/30 00:22:41;;;;;;;;;;;16.90;99.90;;;;;;5008064;28;20331;-71
2021/08/30 00:25:07;;;;;;;;;;;16.80;99.90;;;;;;5008771;28;19917;-71
2021/08/30 00:27:32;;;;;;;;;;;16.80;99.90;;;;;;5008981;28;19921;-71
2021/08/30 00:29:58;;;;;;;;;;;16.80;99.90;;;;;;5008388;28;20307;-70
2021/08/30 00:32:24;;;;;;;;;;;16.80;99.90;;;;;;5007887;28;19909;-72
2021/08/30 00:34:49;;;;;;;;;;;16.80;99.90;;;;;;5006601;28;19933;-69
2021/08/30 00:37:15;;;;;;;;;;;16.90;99.90;;;;;;5006967;28;19963;-70
2021/08/30 00:39:40;;;;;;;;;;;16.90;99.90;;;;;;5009067;28;19925;-71
2021/08/30 00:42:07;;;;;;;;;;;16.80;99.90;;;;;;5009065;28;19929;-71
2021/08/30 00:44:33;;;;;;;;;;;16.80;99.90;;;;;;5007417;28;19920;-71
2021/08/30 00:46:58;;;;;;;;;;;16.80;99.90;;;;;;5007597;28;19917;-71
2021/08/30 00:49:24;;;;;;;;;;;16.80;99.90;;;;;;5004552;28;19909;-69
2021/08/30 00:51:50;;;;;;;;;;;16.70;99.90;;;;;;5003985;28;19909;-71
2021/08/30 00:54:16;;;;;;;;;;;16.70;99.90;;;;;;5010100;28;19909;-70
2021/08/30 00:56:42;;;;;;;;;;;16.80;99.90;;;;;;5007938;28;19979;-70
2021/08/30 00:59:09;;;;;;;;;;;16.80;99.90;;;;;;5010551;28;19996;-70
2021/08/30 01:01:35;;;;;;;;;;;16.90;99.90;;;;;;5007186;28;19914;-71
2021/08/30 01:04:00;;;;;;;;;;;16.80;99.90;;;;;;5008532;28;20363;-70
2021/08/30 01:06:41;;;;;;;;;;;16.80;99.90;;;;;;5008530;28;19913;-70
2021/08/30 01:09:07;;;;;;;;;;;16.70;99.90;;;;;;5008660;28;19964;-69
2021/08/30 01:11:33;;;;;;;;;;;16.70;99.90;;;;;;5008861;28;19992;-70
2021/08/30 01:14:05;;;;;;;;;;;16.60;99.90;;;;;;5007583;28;19909;-69
2021/08/30 01:16:31;;;;;;;;;;;16.60;99.90;;;;;;5008288;28;19909;-70
2021/08/30 01:19:04;;;;;;;;;;;16.60;99.90;;;;;;5023803;28;20428;-71
2021/08/30 01:21:37;;;;;;;;;;;16.60;99.90;;;;;;5009604;28;20240;-71
2021/08/30 01:24:09;;;;;;;;;;;16.60;99.90;;;;;;5009652;28;19920;-70
2021/08/30 01:26:40;;;;;;;;;;;16.50;99.90;;;;;;5007858;28;20051;-71
2021/08/30 01:29:24;;;;;;;;;;;16.50;99.90;;;;;;5006931;28;19916;-71
2021/08/30 01:31:53;;;;;;;;;;;16.50;99.90;;;;;;5006840;28;19997;-71
2021/08/30 01:34:20;;;;;;;;;;;16.40;99.90;;;;;;5008325;28;20034;-69
2021/08/30 01:36:45;;;;;;;;;;;16.40;99.90;;;;;;5003692;28;19914;-70
2021/08/30 01:39:11;;;;;;;;;;;16.40;99.90;;;;;;5010089;28;19936;-69
2021/08/30 01:41:37;;;;;;;;;;;16.30;99.90;;;;;;5005625;28;19960;-71
2021/08/30 01:44:04;;;;;;;;;;;16.30;99.90;;;;;;5009786;28;20399;-70
2021/08/30 01:46:29;;;;;;;;;;;16.40;99.90;;;;;;5009677;28;20275;-69
2021/08/30 01:48:55;;;;;;;;;;;16.40;99.90;;;;;;5012733;28;19909;-71
2021/08/30 01:51:23;;;;;;;;;;;16.30;99.90;;;;;;5008994;28;19957;-71
2021/08/30 01:53:50;;;;;;;;;;;16.40;99.90;;;;;;5006082;28;19916;-70
2021/08/30 01:56:18;;;;;;;;;;;16.30;99.90;;;;;;5009931;28;20007;-69
2021/08/30 02:01:29;;;;;;;;;;;16.30;99.90;;;;;;5013054;28;19944;-70
2021/08/30 02:03:55;;;;;;;;;;;16.30;99.90;;;;;;5012064;28;19909;-71
2021/08/30 02:06:21;;;;;;;;;;;16.30;99.90;;;;;;5008505;28;20287;-71
2021/08/30 02:08:46;;;;;;;;;;;16.40;99.90;;;;;;5012299;28;20368;-71
2021/08/30 02:11:14;;;;;;;;;;;16.30;99.90;;;;;;5009691;28;19912;-71
2021/08/30 02:13:40;;;;;;;;;;;16.20;99.90;;;;;;5012074;28;19920;-71
2021/08/30 02:16:06;;;;;;;;;;;16.10;99.90;;;;;;5011422;28;19913;-70
2021/08/30 02:18:35;;;;;;;;;;;16.10;99.90;;;;;;5011448;28;19920;-70
2021/08/30 02:21:30;;;;;;;;;;;16.10;99.90;;;;;;5011614;28;19910;-71
2021/08/30 02:24:14;;;;;;;;;;;16.00;99.90;;;;;;5005449;28;19920;-70
2021/08/30 02:26:45;;;;;;;;;;;16.10;99.90;;;;;;5008946;28;19940;-70
2021/08/30 02:29:12;;;;;;;;;;;16.10;99.90;;;;;;5011429;28;19914;-70
2021/08/30 02:31:39;;;;;;;;;;;16.30;99.90;;;;;;5012713;28;19916;-72
2021/08/30 02:34:06;;;;;;;;;;;16.40;99.90;;;;;;5010869;28;19917;-71
2021/08/30 02:36:32;;;;;;;;;;;16.50;99.90;;;;;;5007192;28;20000;-71
2021/08/30 02:39:00;;;;;;;;;;;16.40;99.90;;;;;;5011748;28;20391;-71
2021/08/30 02:41:26;;;;;;;;;;;16.50;99.90;;;;;;5010370;28;19932;-71
2021/08/30 02:43:52;;;;;;;;;;;16.50;99.90;;;;;;5011522;28;19918;-69
2021/08/30 02:46:18;;;;;;;;;;;16.50;99.90;;;;;;5007426;28;19913;-70
2021/08/30 02:48:43;;;;;;;;;;;16.60;99.90;;;;;;5012918;28;19905;-71
2021/08/30 02:51:11;;;;;;;;;;;16.60;99.90;;;;;;5010669;28;19910;-72
2021/08/30 02:53:37;;;;;;;;;;;16.70;99.90;;;;;;5009992;28;19910;-71
2021/08/30 02:56:03;;;;;;;;;;;16.70;99.90;;;;;;5007060;28;19972;-70
2021/08/30 02:58:29;;;;;;;;;;;16.60;99.90;;;;;;5004380;28;19913;-71
2021/08/30 03:00:55;;;;;;;;;;;16.60;99.90;;;;;;5007823;28;19918;-70
2021/08/30 03:03:21;;;;;;;;;;;16.70;99.90;;;;;;5010484;28;19913;-71
2021/08/30 03:05:47;;;;;;;;;;;16.70;99.90;;;;;;5008738;28;19909;-72
2021/08/30 03:08:13;;;;;;;;;;;16.60;99.90;;;;;;5009808;28;19914;-72
2021/08/30 03:10:39;;;;;;;;;;;16.70;99.90;;;;;;5011075;28;19909;-72
2021/08/30 03:13:05;;;;;;;;;;;16.70;99.90;;;;;;5008462;28;19988;-72
2021/08/30 03:15:32;;;;;;;;;;;16.80;99.90;;;;;;5009813;28;19917;-70
2021/08/30 03:17:59;;;;;;;;;;;16.80;99.90;;;;;;5010669;28;20023;-70
2021/08/30 03:20:26;;;;;;;;;;;16.80;99.90;;;;;;5010341;28;19964;-71
2021/08/30 03:22:53;;;;;;;;;;;16.90;99.90;;;;;;5010614;28;19913;-71
2021/08/30 03:25:20;;;;;;;;;;;16.70;99.90;;;;;;5010047;28;19910;-70
2021/08/30 03:27:46;;;;;;;;;;;16.70;99.90;;;;;;5010124;28;20784;-71
2021/08/30 03:30:13;;;;;;;;;;;16.60;99.90;;;;;;5005177;28;19992;-70
2021/08/30 03:32:39;;;;;;;;;;;16.60;99.90;;;;;;5011367;28;19909;-71
2021/08/30 03:35:05;;;;;;;;;;;16.60;99.90;;;;;;5010123;28;20032;-72
2021/08/30 03:37:33;;;;;;;;;;;16.50;99.90;;;;;;5006956;28;19910;-70
2021/08/30 03:39:59;;;;;;;;;;;16.50;99.90;;;;;;5009702;28;19906;-71
2021/08/30 03:42:25;;;;;;;;;;;16.40;99.90;;;;;;5009850;28;19932;-70
2021/08/30 03:44:52;;;;;;;;;;;16.50;99.90;;;;;;5009458;28;20012;-72
2021/08/30 03:47:18;;;;;;;;;;;16.50;99.90;;;;;;5009753;28;19963;-70
2021/08/30 03:49:44;;;;;;;;;;;16.50;99.90;;;;;;5007666;28;19910;-70
2021/08/30 03:52:10;;;;;;;;;;;16.60;99.90;;;;;;5005522;28;19910;-71
2021/08/30 03:54:36;;;;;;;;;;;16.70;99.90;;;;;;5008992;28;19916;-70
2021/08/30 03:57:02;;;;;;;;;;;16.70;99.90;;;;;;5006843;28;19913;-70
2021/08/30 03:59:33;;;;;;;;;;;16.70;99.90;;;;;;5007546;28;19964;-71
2021/08/30 04:01:59;;;;;;;;;;;16.60;99.90;;;;;;5003105;28;19918;-71
2021/08/30 04:04:26;;;;;;;;;;;16.60;99.90;;;;;;5005737;28;19920;-71
2021/08/30 04:06:53;;;;;;;;;;;16.70;99.90;;;;;;5006802;28;19917;-70
2021/08/30 04:09:20;;;;;;;;;;;16.70;99.90;;;;;;5005718;28;20339;-71
2021/08/30 04:11:47;;;;;;;;;;;16.70;99.90;;;;;;5005600;28;19910;-69
2021/08/30 04:14:13;;;;;;;;;;;16.70;99.90;;;;;;5007519;28;19976;-71
2021/08/30 04:16:39;;;;;;;;;;;16.70;99.90;;;;;;5005620;28;20318;-71
2021/08/30 04:19:08;;;;;;;;;;;16.60;99.90;;;;;;5006631;28;19909;-70
2021/08/30 04:21:34;;;;;;;;;;;16.60;99.90;;;;;;5006122;28;19913;-71
2021/08/30 04:23:59;;;;;;;;;;;16.60;99.90;;;;;;5006866;28;19915;-71
2021/08/30 04:26:25;;;;;;;;;;;16.60;99.90;;;;;;5005726;28;19910;-73
2021/08/30 04:28:51;;;;;;;;;;;16.70;99.90;;;;;;5006401;28;19909;-71
2021/08/30 04:31:16;;;;;;;;;;;16.70;99.90;;;;;;5005569;28;19954;-70
2021/08/30 04:33:42;;;;;;;;;;;16.70;99.90;;;;;;5007739;28;19914;-70
2021/08/30 04:36:08;;;;;;;;;;;16.80;99.90;;;;;;5005505;28;20035;-70
2021/08/30 04:38:33;;;;;;;;;;;16.80;99.90;;;;;;5006475;28;19955;-71
2021/08/30 04:40:59;;;;;;;;;;;16.80;99.90;;;;;;5005632;28;19909;-72
2021/08/30 04:43:25;;;;;;;;;;;16.90;99.90;;;;;;5006080;28;20706;-71
2021/08/30 04:45:50;;;;;;;;;;;16.90;99.90;;;;;;5005588;28;20429;-70
2021/08/30 04:48:16;;;;;;;;;;;16.90;99.90;;;;;;5004076;28;19909;-71
2021/08/30 04:50:42;;;;;;;;;;;16.90;99.90;;;;;;5005093;28;20055;-70
2021/08/30 04:53:08;;;;;;;;;;;16.90;99.90;;;;;;5005929;28;20327;-70
2021/08/30 04:55:34;;;;;;;;;;;17.00;99.90;;;;;;5004031;28;20019;-72
2021/08/30 04:58:01;;;;;;;;;;;17.10;99.90;;;;;;5006969;28;19916;-70
2021/08/30 05:00:34;;;;;;;;;;;17.30;99.90;;;;;;5006317;28;20462;-72
2021/08/30 05:03:00;;;;;;;;;;;17.20;99.90;;;;;;5020334;28;19914;-71
2021/08/30 05:05:25;;;;;;;;;;;17.20;99.90;;;;;;5000598;28;19933;-71
2021/08/30 05:07:51;;;;;;;;;;;17.20;99.90;;;;;;5005258;28;19979;-71
2021/08/30 05:10:17;;;;;;;;;;;17.20;99.90;;;;;;5015134;28;19933;-73
2021/08/30 05:12:42;;;;;;;;;;;17.30;99.90;;;;;;5006429;28;19988;-70
2021/08/30 05:15:08;;;;;;;;;;;17.20;99.90;;;;;;5006247;28;20016;-71
2021/08/30 05:17:34;;;;;;;;;;;17.20;99.90;;;;;;5003784;28;19916;-70
2021/08/30 05:19:59;;;;;;;;;;;17.20;99.90;;;;;;5006405;28;19909;-69
2021/08/30 05:22:25;;;;;;;;;;;17.20;99.90;;;;;;5006613;28;19913;-70
2021/08/30 05:25:08;;;;;;;;;;;17.10;99.90;;;;;;5004906;28;19914;-71
2021/08/30 05:27:34;;;;;;;;;;;17.20;99.90;;;;;;5001202;28;19917;-70
2021/08/30 05:29:59;;;;;;;;;;;17.30;99.90;;;;;;5001505;28;19909;-69
2021/08/30 05:32:25;;;;;;;;;;;17.40;99.90;;;;;;5009091;28;19909;-71
2021/08/30 05:34:50;;;;;;;;;;;17.50;99.90;;;;;;5007999;28;19909;-71
2021/08/30 05:37:16;;;;;;;;;;;17.60;99.90;;;;;;5014684;28;20353;-69
2021/08/30 05:39:42;;;;;;;;;;;17.50;99.90;;;;;;5011076;28;19959;-71
2021/08/30 05:42:07;;;;;;;;;;;17.60;99.90;;;;;;5010413;28;20256;-72
2021/08/30 05:44:33;;;;;;;;;;;17.70;99.90;;;;;;5008718;28;19921;-69
2021/08/30 05:46:58;;;;;;;;;;;18.00;99.90;;;;;;5009105;28;20000;-69
2021/08/30 05:49:24;;;;;;;;;;;18.10;99.90;;;;;;5010286;28;20288;-70
2021/08/30 05:51:50;;;;;;;;;;;18.20;99.90;;;;;;5010264;28;19906;-71
2021/08/30 05:54:15;;;;;;;;;;;18.50;99.90;;;;;;5013546;28;19913;-70
2021/08/30 05:56:41;;;;;;;;;;;18.60;99.90;;;;;;5010099;28;20287;-69
2021/08/30 05:59:07;;;;;;;;;;;18.80;99.90;;;;;;5012736;28;19905;-69
2021/08/30 06:01:35;;;;;;;;;;;19.00;99.90;;;;;;5007439;28;19909;-70
2021/08/30 06:04:01;;;;;;;;;;;19.10;99.90;;;;;;5011770;28;19905;-70
2021/08/30 06:06:27;;;;;;;;;;;19.20;99.90;;;;;;5009258;28;20048;-69
2021/08/30 06:08:53;;;;;;;;;;;19.30;99.90;;;;;;5009665;28;20394;-72
2021/08/30 06:11:18;;;;;;;;;;;19.50;99.90;;;;;;5008049;28;19916;-70
2021/08/30 06:13:44;;;;;;;;;;;19.40;99.90;;;;;;5010421;28;20295;-70
2021/08/30 06:16:09;;;;;;;;;;;19.30;99.90;;;;;;5007638;28;19956;-71
2021/08/30 06:18:35;;;;;;;;;;;19.30;99.90;;;;;;5009862;28;19917;-72
2021/08/30 06:21:00;;;;;;;;;;;19.10;99.90;;;;;;5008053;28;19917;-71
2021/08/30 06:23:28;;;;;;;;;;;19.10;99.90;;;;;;5010162;28;19909;-70
2021/08/30 06:25:53;;;;;;;;;;;19.10;99.90;;;;;;5007266;28;19944;-71
2021/08/30 06:28:19;;;;;;;;;;;19.10;99.90;;;;;;5007609;28;20309;-71
2021/08/30 06:30:44;;;;;;;;;;;19.20;99.90;;;;;;5009442;28;19909;-70
2021/08/30 06:33:10;;;;;;;;;;;19.30;99.90;;;;;;5011523;28;19905;-69
2021/08/30 06:35:38;;;;;;;;;;;19.40;99.90;;;;;;5001506;28;19917;-71
2021/08/30 06:38:04;;;;;;;;;;;19.60;99.90;;;;;;5013601;28;19906;-72
2021/08/30 06:40:29;;;;;;;;;;;19.70;99.90;;;;;;5011210;28;19910;-70
2021/08/30 06:42:55;;;;;;;;;;;19.90;99.90;;;;;;5011986;28;20360;-71
2021/08/30 06:45:23;;;;;;;;;;;20.10;99.90;;;;;;5009189;28;19913;-71
2021/08/30 06:47:49;;;;;;;;;;;20.30;99.90;;;;;;5010912;28;19967;-71
2021/08/30 06:50:15;;;;;;;;;;;20.60;99.90;;;;;;5013224;28;19909;-71
2021/08/30 06:52:40;;;;;;;;;;;20.80;99.90;;;;;;5010682;28;20415;-71
2021/08/30 06:55:06;;;;;;;;;;;21.00;99.90;;;;;;5009472;28;19918;-69
2021/08/30 06:57:35;;;;;;;;;;;21.20;99.90;;;;;;5011266;28;19909;-72
2021/08/30 07:00:01;;;;;;;;;;;21.30;99.90;;;;;;5010638;28;19909;-70
2021/08/30 07:02:27;;;;;;;;;;;21.40;99.90;;;;;;5011897;28;19976;-70
2021/08/30 07:04:52;;;;;;;;;;;21.50;99.90;;;;;;5012459;28;19913;-70
2021/08/30 07:07:18;;;;;;;;;;;21.70;99.90;;;;;;5013026;28;19910;-71
2021/08/30 07:09:51;;;;;;;;;;;21.80;99.90;;;;;;5011069;28;19909;-73
2021/08/30 07:12:19;;;;;;;;;;;21.70;99.90;;;;;;5010616;28;19995;-71
2021/08/30 07:14:45;;;;;;;;;;;21.80;99.90;;;;;;5011235;28;20043;-71
2021/08/30 07:17:10;;;;;;;;;;;21.90;99.90;;;;;;5012115;28;20348;-71
2021/08/30 07:19:37;;;;;;;;;;;22.10;99.90;;;;;;5010322;28;19999;-70
2021/08/30 07:22:03;;;;;;;;;;;22.10;99.90;;;;;;5009283;28;19917;-69
2021/08/30 07:24:29;;;;;;;;;;;22.10;99.90;;;;;;5009575;28;19984;-69
2021/08/30 07:26:54;;;;;;;;;;;22.00;99.90;;;;;;5010131;28;20352;-69
2021/08/30 07:29:20;;;;;;;;;;;22.20;99.90;;;;;;5007694;28;19917;-69
2021/08/30 07:31:46;;;;;;;;;;;22.20;99.90;;;;;;5003112;28;19999;-68
2021/08/30 07:34:11;;;;;;;;;;;22.20;99.90;;;;;;5003272;28;19909;-70
2021/08/30 07:36:37;;;;;;;;;;;22.20;99.90;;;;;;5010469;28;19910;-68
2021/08/30 07:39:04;;;;;;;;;;;22.30;99.90;;;;;;5013234;28;19906;-69
2021/08/30 07:41:30;;;;;;;;;;;22.30;99.90;;;;;;5009764;28;19909;-69
2021/08/30 07:43:57;;;;;;;;;;;22.30;99.90;;;;;;5012167;28;20333;-68
2021/08/30 07:46:23;;;;;;;;;;;22.50;99.90;;;;;;5008613;28;19920;-69
2021/08/30 07:48:48;;;;;;;;;;;22.60;99.90;;;;;;5010023;28;19914;-71
2021/08/30 07:51:14;;;;;;;;;;;22.60;99.90;;;;;;5011374;28;19925;-70
2021/08/30 07:53:40;;;;;;;;;;;22.50;99.90;;;;;;5012232;28;19932;-70
2021/08/30 07:56:06;;;;;;;;;;;22.60;99.90;;;;;;5008201;28;20307;-70
2021/08/30 07:58:32;;;;;;;;;;;22.60;99.90;;;;;;5011753;28;19913;-70
2021/08/30 08:00:57;;;;;;;;;;;22.60;99.90;;;;;;5009686;28;19905;-70
2021/08/30 08:03:23;;;;;;;;;;;22.70;99.90;;;;;;5011162;28;19920;-69
2021/08/30 08:05:48;;;;;;;;;;;22.80;99.90;;;;;;5006603;28;19913;-69
2021/08/30 08:08:14;;;;;;;;;;;23.00;99.90;;;;;;5010522;28;20164;-69
2021/08/30 08:10:40;;;;;;;;;;;23.20;99.90;;;;;;5008790;28;19912;-68
2021/08/30 08:13:06;;;;;;;;;;;23.30;99.90;;;;;;5010576;28;21375;-68
2021/08/30 08:15:31;;;;;;;;;;;23.40;99.90;;;;;;5010003;28;19932;-68
2021/08/30 08:17:57;;;;;;;;;;;23.40;99.90;;;;;;5003580;28;19999;-68
2021/08/30 08:20:22;;;;;;;;;;;23.50;99.90;;;;;;5010702;28;19996;-68
2021/08/30 08:22:48;;;;;;;;;;;23.70;99.90;;;;;;5010451;28;19909;-68
2021/08/30 08:25:14;;;;;;;;;;;23.80;99.90;;;;;;5010607;28;19997;-68
2021/08/30 08:27:39;;;;;;;;;;;23.90;99.90;;;;;;5010458;28;20390;-67
2021/08/30 08:30:06;;;;;;;;;;;23.70;99.90;;;;;;5011139;28;19905;-68
2021/08/30 08:32:31;;;;;;;;;;;23.70;99.90;;;;;;5009599;28;20323;-69
2021/08/30 08:34:57;;;;;;;;;;;23.80;99.90;;;;;;5011067;28;19909;-69
2021/08/30 08:37:23;;;;;;;;;;;24.00;99.90;;;;;;5002961;28;19906;-69
2021/08/30 08:39:48;;;;;;;;;;;23.80;99.90;;;;;;5010969;28;19968;-68
2021/08/30 08:42:14;;;;;;;;;;;23.80;99.90;;;;;;5008616;28;19957;-69
2021/08/30 08:44:40;;;;;;;;;;;23.80;99.90;;;;;;5011089;28;19936;-68
2021/08/30 08:47:08;;;;;;;;;;;23.60;99.90;;;;;;5009555;28;19929;-68
2021/08/30 08:49:33;;;;;;;;;;;23.40;99.90;;;;;;5010860;28;20368;-68
2021/08/30 08:52:01;;;;;;;;;;;23.20;99.90;;;;;;5010156;28;19963;-68
2021/08/30 08:54:27;;;;;;;;;;;23.30;99.90;;;;;;5010811;28;19905;-67
2021/08/30 08:56:52;;;;;;;;;;;23.20;99.90;;;;;;5002981;28;20273;-68
2021/08/30 08:59:18;;;;;;;;;;;23.40;99.90;;;;;;5010944;28;19905;-69
2021/08/30 09:01:44;;;;;;;;;;;23.50;99.90;;;;;;5009894;28;19953;-68
2021/08/30 09:04:10;;;;;;;;;;;23.60;99.90;;;;;;5010762;28;19905;-68
2021/08/30 09:06:41;;;;;;;;;;;23.70;99.90;;;;;;5004323;28;19971;-67
2021/08/30 09:09:08;;;;;;;;;;;23.70;99.90;;;;;;5025604;28;19923;-69
2021/08/30 09:11:38;;;;;;;;;;;23.70;99.90;;;;;;5007756;28;19932;-69
2021/08/30 09:14:15;;;;;;;;;;;23.60;99.90;;;;;;5010480;28;20003;-68
2021/08/30 09:16:41;;;;;;;;;;;23.60;99.90;;;;;;4995573;28;19963;-68
2021/08/30 09:19:07;;;;;;;;;;;23.50;99.90;;;;;;5008284;28;19913;-69
2021/08/30 09:21:33;;;;;;;;;;;23.50;99.90;;;;;;5009817;28;19913;-69
2021/08/30 09:24:29;;;;;;;;;;;23.40;99.90;;;;;;5009026;28;19906;-69
2021/08/30 09:26:56;;;;;;;;;;;23.50;99.90;;;;;;4988176;28;19925;-69
2021/08/30 09:29:26;;;;;;;;;;;23.80;99.90;;;;;;5009154;28;19916;-69
2021/08/30 09:31:56;;;;;;;;;;;24.00;99.90;;;;;;5008506;28;19917;-67
2021/08/30 09:34:21;;;;;;;;;;;24.00;99.90;;;;;;5010716;28;19905;-69
2021/08/30 09:36:47;;;;;;;;;;;24.10;99.90;;;;;;5006310;28;19909;-68
2021/08/30 09:39:14;;;;;;;;;;;24.10;99.90;;;;;;5001331;28;20150;-68
2021/08/30 09:41:43;;;;;;;;;;;24.20;99.90;;;;;;5008006;28;20011;-68
2021/08/30 09:44:09;;;;;;;;;;;24.10;99.90;;;;;;5009070;28;20008;-68
2021/08/30 09:46:34;;;;;;;;;;;24.00;99.90;;;;;;5005266;28;20394;-69
2021/08/30 09:49:09;;;;;;;;;;;23.90;99.90;;;;;;5002614;28;19955;-69
2021/08/30 09:51:38;;;;;;;;;;;23.80;99.90;;;;;;5005101;28;19924;-69
2021/08/30 09:54:04;;;;;;;;;;;23.80;99.90;;;;;;5008551;28;19996;-68
2021/08/30 09:56:32;;;;;;;;;;;23.80;99.90;;;;;;5010853;28;19976;-69
2021/08/30 09:58:59;;;;;;;;;;;23.90;99.90;;;;;;5010067;28;20382;-70
2021/08/30 10:01:24;;;;;;;;;;;24.00;99.90;;;;;;5009020;28;20510;-69
2021/08/30 10:03:50;;;;;;;;;;;24.00;99.90;;;;;;5011505;28;19912;-69
2021/08/30 10:06:16;;;;;;;;;;;24.00;99.90;;;;;;5011386;28;19909;-69
2021/08/30 10:08:42;;;;;;;;;;;23.80;99.90;;;;;;5013833;28;19913;-69
2021/08/30 10:11:09;;;;;;;;;;;23.50;99.90;;;;;;5014077;28;19992;-69
2021/08/30 10:13:34;;;;;;;;;;;23.40;99.90;;;;;;5012848;28;19916;-70
2021/08/30 10:16:00;;;;;;;;;;;23.40;99.90;;;;;;5007697;28;19909;-72
2021/08/30 10:18:26;;;;;;;;;;;23.50;99.90;;;;;;5012967;28;19906;-69
2021/08/30 10:20:54;;;;;;;;;;;23.60;99.90;;;;;;5012083;28;19913;-68
2021/08/30 10:23:20;;;;;;;;;;;23.70;99.90;;;;;;5013321;28;19955;-69
2021/08/30 10:25:58;;;;;;;;;;;23.80;99.90;;;;;;5008693;28;19909;-69
2021/08/30 10:28:35;;;;;;;;;;;23.80;99.90;;;;;;5012857;28;19917;-69
2021/08/30 10:31:00;;;;;;;;;;;23.70;99.90;;;;;;5013361;28;19931;-69
2021/08/30 10:33:34;;;;;;;;;;;23.50;99.90;;;;;;5013023;28;20300;-69
2021/08/30 10:36:10;;;;;;;;;;;23.60;99.90;;;;;;5011237;28;19909;-70
2021/08/30 10:38:35;;;;;;;;;;;23.70;99.90;;;;;;5002796;28;19921;-70
2021/08/30 10:41:01;;;;;;;;;;;23.80;99.90;;;;;;5009499;28;19931;-71
2021/08/30 10:43:31;;;;;;;;;;;23.80;99.90;;;;;;5012742;28;19913;-71
2021/08/30 10:45:57;;;;;;;;;;;23.90;99.90;;;;;;5009132;28;19954;-69
2021/08/30 10:48:33;;;;;;;;;;;24.30;99.90;;;;;;5012732;28;19996;-70
2021/08/30 10:50:59;;;;;;;;;;;24.60;99.90;;;;;;5013490;28;19906;-71
2021/08/30 10:53:25;;;;;;;;;;;24.80;99.90;;;;;;5011352;28;20324;-69
2021/08/30 10:55:55;;;;;;;;;;;25.10;99.90;;;;;;5007896;28;19963;-69
2021/08/30 10:58:22;;;;;;;;;;;25.40;99.90;;;;;;5012975;28;19988;-71
2021/08/30 11:00:49;;;;;;;;;;;25.50;99.90;;;;;;5012784;28;19917;-71
2021/08/30 11:03:32;;;;;;;;;;;25.40;99.90;;;;;;5011597;28;20310;-72
2021/08/30 11:06:04;;;;;;;;;;;25.30;99.90;;;;;;5007681;28;20330;-71
2021/08/30 11:08:29;;;;;;;;;;;25.40;99.90;;;;;;5012460;28;19917;-71
2021/08/30 11:11:06;;;;;;;;;;;25.50;99.90;;;;;;5012976;28;20376;-71
2021/08/30 11:13:32;;;;;;;;;;;25.50;99.90;;;;;;5011402;28;19964;-71
2021/08/30 11:15:58;;;;;;;;;;;25.00;99.90;;;;;;5010499;28;19961;-72
2021/08/30 11:18:23;;;;;;;;;;;25.00;99.90;;;;;;5011912;28;19909;-71
2021/08/30 11:20:49;;;;;;;;;;;24.80;99.90;;;;;;5013280;28;19911;-72
2021/08/30 11:23:16;;;;;;;;;;;24.70;99.90;;;;;;5011275;28;20012;-70
2021/08/30 11:25:42;;;;;;;;;;;24.80;99.90;;;;;;5006635;28;20386;-71
2021/08/30 11:28:14;;;;;;;;;;;24.80;99.90;;;;;;5012917;28;19905;-71
2021/08/30 11:30:40;;;;;;;;;;;24.80;99.90;;;;;;5009000;28;19972;-72
2021/08/30 11:33:06;;;;;;;;;;;24.90;99.90;;;;;;5012745;28;19941;-70
2021/08/30 11:35:31;;;;;;;;;;;24.90;99.90;;;;;;5010832;28;20003;-71
2021/08/30 11:37:58;;;;;;;;;;;25.00;99.90;;;;;;5010991;28;19905;-71
2021/08/30 11:40:24;;;;;;;;;;;25.00;99.90;;;;;;5011735;28;20474;-72
2021/08/30 11:42:49;;;;;;;;;;;24.80;99.90;;;;;;5010791;28;19913;-70
2021/08/30 11:45:15;;;;;;;;;;;24.60;99.90;;;;;;5008966;28;19961;-71
2021/08/30 11:47:40;;;;;;;;;;;24.70;99.90;;;;;;5014493;28;19906;-72
2021/08/30 11:50:11;;;;;;;;;;;24.70;99.90;;;;;;5011947;28;19913;-70
2021/08/30 11:52:40;;;;;;;;;;;24.40;99.90;;;;;;5012887;28;19909;-71
2021/08/30 11:55:21;;;;;;;;;;;24.50;99.90;;;;;;5011114;28;19906;-71
2021/08/30 11:58:17;;;;;;;;;;;24.40;99.90;;;;;;5011672;28;19917;-72
2021/08/30 12:00:47;;;;;;;;;;;24.00;99.90;;;;;;5010403;28;19909;-70
2021/08/30 12:03:14;;;;;;;;;;;23.90;99.90;;;;;;5007509;28;19967;-71
2021/08/30 12:05:42;;;;;;;;;;;24.10;99.90;;;;;;5009153;28;20414;-71
2021/08/30 12:08:14;;;;;;;;;;;24.20;99.90;;;;;;5012701;28;20360;-72
2021/08/30 12:10:44;;;;;;;;;;;24.20;99.90;;;;;;5011480;28;19909;-72
2021/08/30 12:15:58;;;;;;;;;;;23.80;99.90;;;;;;5011763;28;19928;-72
2021/08/30 12:18:26;;;;;;;;;;;23.90;99.90;;;;;;5013857;28;19949;-72
2021/08/30 12:20:56;;;;;;;;;;;23.90;99.90;;;;;;5010268;28;19916;-70
2021/08/30 12:23:22;;;;;;;;;;;23.90;99.90;;;;;;5012725;28;19920;-73
2021/08/30 12:25:48;;;;;;;;;;;23.90;99.90;;;;;;5009446;28;19905;-72
2021/08/30 12:28:18;;;;;;;;;;;23.70;99.90;;;;;;5002938;28;19925;-71
2021/08/30 12:30:45;;;;;;;;;;;23.70;99.90;;;;;;5014276;28;20004;-70
2021/08/30 12:33:16;;;;;;;;;;;23.90;99.90;;;;;;5010608;28;19917;-70
2021/08/30 12:35:42;;;;;;;;;;;24.00;99.90;;;;;;5010630;28;19944;-71
2021/08/30 12:38:13;;;;;;;;;;;24.10;99.90;;;;;;5011505;28;19952;-70
2021/08/30 12:40:41;;;;;;;;;;;24.10;99.90;;;;;;5011222;28;19996;-72
2021/08/30 12:43:07;;;;;;;;;;;24.40;99.90;;;;;;5009763;28;19921;-70
2021/08/30 12:45:32;;;;;;;;;;;24.30;99.90;;;;;;5011876;28;19931;-70
2021/08/30 12:47:58;;;;;;;;;;;24.10;99.90;;;;;;5005068;28;20376;-70
2021/08/30 12:50:24;;;;;;;;;;;24.30;99.90;;;;;;5011323;28;19909;-72
2021/08/30 12:52:49;;;;;;;;;;;24.40;99.90;;;;;;5008564;28;19909;-71
2021/08/30 12:55:15;;;;;;;;;;;24.70;99.90;;;;;;5010155;28;20295;-69
2021/08/30 12:57:41;;;;;;;;;;;24.90;99.90;;;;;;5009155;28;19916;-71
2021/08/30 13:00:10;;;;;;;;;;;24.90;99.90;;;;;;5009797;28;20379;-70
2021/08/30 13:02:36;;;;;;;;;;;24.70;99.90;;;;;;5005448;28;19917;-72
2021/08/30 13:05:02;;;;;;;;;;;24.60;99.90;;;;;;5012232;28;19913;-72
2021/08/30 13:07:28;;;;;;;;;;;24.60;99.90;;;;;;5013932;28;19909;-71
2021/08/30 13:09:56;;;;;;;;;;;24.30;99.90;;;;;;5020747;28;19910;-71
2021/08/30 13:12:21;;;;;;;;;;;24.00;99.90;;;;;;5013213;28;20352;-70
2021/08/30 13:14:47;;;;;;;;;;;23.80;99.90;;;;;;5009729;28;20047;-71
2021/08/30 13:17:12;;;;;;;;;;;23.90;99.90;;;;;;5014063;28;19917;-71
2021/08/30 13:19:38;;;;;;;;;;;24.20;99.90;;;;;;5013187;28;20359;-70
2021/08/30 13:22:04;;;;;;;;;;;24.20;99.90;;;;;;5012547;28;19913;-73
2021/08/30 13:24:29;;;;;;;;;;;24.20;99.90;;;;;;5011085;28;19909;-71
2021/08/30 13:26:55;;;;;;;;;;;24.20;99.90;;;;;;5010002;28;19992;-71
2021/08/30 13:29:21;;;;;;;;;;;24.40;99.90;;;;;;5011921;28;19914;-72
2021/08/30 13:31:47;;;;;;;;;;;24.40;99.90;;;;;;5008849;28;20040;-72
2021/08/30 13:34:12;;;;;;;;;;;24.50;99.90;;;;;;5009656;28;19917;-70
2021/08/30 13:36:38;;;;;;;;;;;24.40;99.90;;;;;;5009466;28;19963;-71
2021/08/30 13:39:04;;;;;;;;;;;24.40;99.90;;;;;;5014488;28;19948;-69
2021/08/30 13:41:29;;;;;;;;;;;24.30;99.90;;;;;;5022596;28;19909;-73
2021/08/30 13:43:55;;;;;;;;;;;24.40;99.90;;;;;;5015884;28;19913;-72
2021/08/30 13:46:21;;;;;;;;;;;24.20;99.90;;;;;;5011694;28;19910;-70
2021/08/30 13:48:46;;;;;;;;;;;24.20;99.90;;;;;;5012039;28;19951;-70
2021/08/30 13:51:13;;;;;;;;;;;24.60;99.90;;;;;;5014527;28;19913;-69
2021/08/30 13:53:38;;;;;;;;;;;24.80;99.90;;;;;;5014631;28;19906;-70
2021/08/30 13:56:04;;;;;;;;;;;24.90;99.90;;;;;;5006008;28;19916;-72
2021/08/30 13:58:30;;;;;;;;;;;25.00;99.90;;;;;;5015098;28;19906;-70
2021/08/30 14:00:55;;;;;;;;;;;25.00;99.90;;;;;;5012458;28;19909;-69
2021/08/30 14:03:21;;;;;;;;;;;24.90;99.90;;;;;;5013590;28;20011;-70
2021/08/30 14:05:47;;;;;;;;;;;24.90;99.90;;;;;;5011723;28;19967;-71
2021/08/30 14:08:12;;;;;;;;;;;25.00;99.90;;;;;;5007803;28;19924;-71
2021/08/30 14:10:39;;;;;;;;;;;24.80;99.90;;;;;;5004841;28;19914;-71
2021/08/30 14:13:12;;;;;;;;;;;24.80;99.90;;;;;;5012345;28;20008;-69
2021/08/30 14:15:38;;;;;;;;;;;24.60;99.90;;;;;;5013642;28;19948;-72
2021/08/30 14:18:04;;;;;;;;;;;24.40;99.90;;;;;;5007418;28;19925;-69
2021/08/30 14:20:29;;;;;;;;;;;24.40;99.90;;;;;;5012557;28;20404;-70